Terminal Aerodrome Forecast
Issued by NWS Memphis, TN

Home | Current Version | Previous Version | Text Only | Print | Product List | Glossary On
Versions: 1 2 3 4 5 6 7 8 9 10 11 12 13 14 15 16 17 18 19
000
FTUS44 KMEG 270526
TAFJBR
TAF
KJBR 270526Z 2706/2806 18005KT P6SM VCTS BKN009 OVC030CB
      TEMPO 2708/2712 3SM TSRA BKN012 BKN025CB
     FM271300 18012KT P6SM VCSH BKN025 OVC040
     FM271800 18012G20KT P6SM VCTS BKN040CB BKN250
      TEMPO 2720/2724 2SM TSRA BKN025CB=

USA.gov is the U.S. government's official web portal to all federal, state and local government web resources and services.